Time;durP1;ratioP1;P1;durP2;ratioP2;P2;SDS_P1;SDS_P2;PMS_P1;PMS_P2;Temp;Humidity;BMP_temperature;BMP_pressure;BME280_temperature;BME280_humidity;BME280_pressure;Samples;Min_cycle;Max_cycle;Signal;HPM_P1;HPM_P2
2020/12/25 00:00:21;;;;;;;2.27;0.98;;;;;;;4.35;80.37;98113.99;350280;113;1961926;-72
2020/12/25 00:01:27;;;;;;;1.95;0.99;;;;;;;4.38;80.45;98108.23;310853;114;2622004;-72
2020/12/25 00:02:33;;;;;;;2.98;0.88;;;;;;;4.38;80.82;98108.23;349664;113;1962003;-72
2020/12/25 00:03:41;;;;;;;2.09;1.04;;;;;;;4.43;79.93;98099.61;349967;113;1962016;-73
2020/12/25 00:04:48;;;;;;;2.60;1.20;;;;;;;4.45;80.08;98103.72;339329;117;1961994;-71
2020/12/25 00:05:54;;;;;;;2.00;1.00;;;;;;;4.44;80.15;98107.41;350576;114;1961855;-71
2020/12/25 00:07:00;;;;;;;2.19;1.01;;;;;;;4.45;80.08;98097.56;348826;113;1960685;-72
2020/12/25 00:08:06;;;;;;;2.64;0.97;;;;;;;4.42;80.29;98106.81;313223;114;2633993;-72
2020/12/25 00:09:13;;;;;;;2.38;0.88;;;;;;;4.42;80.54;98130.88;348208;113;1970012;-74
2020/12/25 00:10:20;;;;;;;2.77;1.22;;;;;;;4.45;79.97;98137.66;350111;113;1962017;-72
2020/12/25 00:11:36;;;;;;;3.43;1.29;;;;;;;4.50;79.95;98138.70;319859;113;2516062;-72
2020/12/25 00:12:43;;;;;;;5.59;1.74;;;;;;;4.47;80.09;98128.38;349997;113;1962927;-72
2020/12/25 00:13:50;;;;;;;2.77;1.23;;;;;;;4.48;80.17;98143.41;296512;116;2873957;-72
2020/12/25 00:15:03;;;;;;;4.16;1.75;;;;;;;4.48;79.99;98140.74;344648;107;1963805;-72
2020/12/25 00:16:09;;;;;;;3.29;1.66;;;;;;;4.49;80.09;98129.01;356449;111;1961907;-72
2020/12/25 00:17:15;;;;;;;3.31;1.72;;;;;;;4.50;79.68;98138.70;325702;109;2604904;-71
2020/12/25 00:18:20;;;;;;;4.01;1.67;;;;;;;4.52;79.65;98144.64;349870;107;1961024;-71
2020/12/25 00:19:26;;;;;;;3.36;1.45;;;;;;;4.58;79.19;98137.67;369007;107;1960910;-72
2020/12/25 00:20:33;;;;;;;3.88;1.43;;;;;;;4.62;79.10;98133.55;368524;107;1962039;-71
2020/12/25 00:21:38;;;;;;;3.67;1.63;;;;;;;4.61;79.19;98137.26;362740;107;1960678;-72
2020/12/25 00:22:44;;;;;;;4.41;1.85;;;;;;;4.62;79.26;98147.73;339101;111;2341945;-72
2020/12/25 00:23:50;;;;;;;5.62;1.80;;;;;;;4.63;80.19;98137.85;334774;111;1961927;-70
2020/12/25 00:24:55;;;;;;;4.05;1.38;;;;;;;4.62;80.08;98138.89;363046;109;1964010;-72
2020/12/25 00:26:03;;;;;;;4.24;1.83;;;;;;;4.66;79.79;98137.47;369364;107;1961939;-73
2020/12/25 00:27:09;;;;;;;4.22;1.70;;;;;;;4.70;79.51;98138.69;334280;107;2894949;-73
2020/12/25 00:28:15;;;;;;;2.60;1.04;;;;;;;4.71;79.02;98131.48;355138;109;1961970;-74
2020/12/25 00:29:20;;;;;;;2.30;1.12;;;;;;;4.77;78.88;98147.55;371465;107;1962965;-72
2020/12/25 00:30:28;;;;;;;4.80;1.33;;;;;;;4.83;78.64;98140.54;368632;107;1961968;-72
2020/12/25 00:31:36;;;;;;;2.98;1.15;;;;;;;4.81;78.55;98142.59;353104;107;2922951;-73
2020/12/25 00:32:41;;;;;;;2.93;0.91;;;;;;;4.78;79.06;98143.83;369770;107;1961982;-73
2020/12/25 00:33:47;;;;;;;3.96;1.59;;;;;;;4.81;79.07;98147.94;370573;107;1961962;-72
2020/12/25 00:34:54;;;;;;;3.76;1.24;;;;;;;4.78;79.28;98138.48;323162;109;2786011;-72
2020/12/25 00:35:59;;;;;;;4.04;1.77;;;;;;;4.80;79.28;98140.96;353894;107;1962002;-72
2020/12/25 00:37:04;;;;;;;4.59;1.82;;;;;;;4.84;78.71;98134.15;367807;109;1963975;-71
2020/12/25 00:38:09;;;;;;;3.36;1.01;;;;;;;4.86;78.46;98132.09;369427;107;1962032;-71
2020/12/25 00:39:18;;;;;;;2.36;0.88;;;;;;;4.84;78.77;98134.15;367837;107;1961972;-71
2020/12/25 00:40:25;;;;;;;2.38;1.07;;;;;;;4.86;78.42;98124.07;369700;107;1961940;-72
2020/12/25 00:41:30;;;;;;;4.17;1.01;;;;;;;4.85;78.68;98122.44;368093;107;1962303;-71
2020/12/25 00:42:36;;;;;;;2.02;0.88;;;;;;;4.83;78.46;98111.93;362456;109;1961983;-71
2020/12/25 00:43:42;;;;;;;3.22;1.13;;;;;;;4.80;78.68;98109.67;364461;109;1965066;-71
2020/12/25 00:44:48;;;;;;;2.57;0.89;;;;;;;4.81;79.19;98103.28;315528;109;2839037;-72
2020/12/25 00:45:53;;;;;;;2.77;1.12;;;;;;;4.81;78.95;98110.48;347119;111;1961928;-72
2020/12/25 00:46:59;;;;;;;2.57;1.04;;;;;;;4.81;78.98;98105.95;353779;113;1962939;-71
2020/12/25 00:48:04;;;;;;;3.10;1.54;;;;;;;4.83;79.03;98108.44;363332;109;1963993;-72
2020/12/25 00:49:13;;;;;;;3.56;1.38;;;;;;;4.83;78.75;98097.73;356839;111;1961825;-72
2020/12/25 00:50:21;;;;;;;2.26;0.96;;;;;;;4.87;78.49;98107.00;356977;111;1963968;-73
2020/12/25 00:51:29;;;;;;;3.14;1.08;;;;;;;4.87;78.51;98104.33;318042;107;2852912;-72
2020/12/25 00:52:34;;;;;;;3.37;1.26;;;;;;;4.85;78.68;98107.20;364917;108;1961892;-72
2020/12/25 00:53:40;;;;;;;3.04;1.25;;;;;;;4.84;78.48;98104.72;368387;107;1962095;-72
2020/12/25 00:54:47;;;;;;;2.62;1.34;;;;;;;4.83;78.69;98103.91;365733;108;1962172;-72
2020/12/25 00:55:54;;;;;;;2.42;0.92;;;;;;;4.87;78.30;98093.63;360610;110;1962000;-73
2020/12/25 00:57:00;;;;;;;4.73;1.14;;;;;;;4.87;78.38;98100.81;352690;113;1962071;-72
2020/12/25 00:58:10;;;;;;;2.02;0.73;;;;;;;4.87;78.24;98098.98;362563;108;1964005;-72
2020/12/25 00:59:16;;;;;;;2.84;1.20;;;;;;;4.87;78.20;98096.30;338970;108;2401025;-71
2020/12/25 01:00:22;;;;;;;3.14;1.14;;;;;;;4.86;78.67;98094.64;364164;108;1963955;-72
2020/12/25 01:01:28;;;;;;;3.12;1.54;;;;;;;4.83;78.54;98090.53;364356;108;1961926;-71
2020/12/25 01:02:35;;;;;;;2.63;1.23;;;;;;;4.85;78.78;98082.30;351740;113;1961972;-72
2020/12/25 01:03:43;;;;;;;2.83;0.99;;;;;;;4.85;78.75;98076.95;315577;108;2838054;-71
2020/12/25 01:04:49;;;;;;;3.64;0.92;;;;;;;4.86;78.49;98083.94;364312;108;1962077;-72
2020/12/25 01:05:55;;;;;;;2.08;1.21;;;;;;;4.87;78.69;98079.41;364048;108;1961974;-71
2020/12/25 01:07:08;;;;;;;2.18;0.97;;;;;;;4.84;78.44;98076.14;319487;108;2777975;-72
2020/12/25 01:08:13;;;;;;;2.29;1.01;;;;;;;4.86;78.37;98078.59;365660;108;1961920;-72
2020/12/25 01:09:20;;;;;;;1.99;0.93;;;;;;;4.88;78.49;98079.20;363399;108;1961972;-71
2020/12/25 01:10:34;;;;;;;3.34;1.13;;;;;;;4.85;78.79;98080.45;364029;108;1961912;-71
2020/12/25 01:11:41;;;;;;;2.47;0.93;;;;;;;4.85;78.85;98079.63;365573;108;1961960;-70
2020/12/25 01:12:46;;;;;;;3.25;1.43;;;;;;;4.87;78.48;98071.38;364174;108;1963914;-72
2020/12/25 01:13:52;;;;;;;2.54;1.09;;;;;;;4.89;78.55;98072.00;364586;108;1962046;-71
2020/12/25 01:14:57;;;;;;;2.51;1.14;;;;;;;4.90;78.82;98068.31;363271;110;1961930;-71
2020/12/25 01:16:07;;;;;;;2.57;1.03;;;;;;;4.92;78.35;98063.55;332651;108;2503953;-72
2020/12/25 01:17:14;;;;;;;3.29;1.37;;;;;;;4.91;78.83;98065.41;363817;108;1962014;-71
2020/12/25 01:18:20;;;;;;;3.77;1.51;;;;;;;4.92;78.74;98063.55;339245;111;2389689;-71
2020/12/25 01:19:26;;;;;;;2.88;1.37;;;;;;;4.95;78.89;98063.13;340827;110;1961894;-71
2020/12/25 01:20:32;;;;;;;3.33;1.82;;;;;;;4.94;78.97;98056.14;359160;109;1961984;-73
2020/12/25 01:21:38;;;;;;;4.21;1.64;;;;;;;4.94;78.57;98054.28;365323;108;1962945;-72
2020/12/25 01:22:44;;;;;;;3.98;1.76;;;;;;;4.91;78.96;98057.38;356084;108;2941946;-72
2020/12/25 01:23:50;;;;;;;4.21;2.26;;;;;;;4.93;78.56;98060.68;336016;108;1962088;-71
2020/12/25 01:24:56;;;;;;;3.37;1.66;;;;;;;4.95;79.07;98055.95;365391;108;1962006;-71
2020/12/25 01:26:05;;;;;;;4.50;2.03;;;;;;;5.00;78.58;98049.95;364189;108;1961939;-71
2020/12/25 01:27:09;;;;;;;3.47;1.61;;;;;;;4.97;78.97;98072.59;323342;110;1996458;-72
2020/12/25 01:28:36;;;;;;;3.63;1.44;;;;;;;4.99;78.56;98062.51;353068;108;1963970;-72
2020/12/25 01:29:41;;;;;;;2.52;1.23;;;;;;;5.01;78.26;98049.75;358117;109;1961939;-74
2020/12/25 01:30:49;;;;;;;2.84;1.41;;;;;;;5.04;78.44;98053.86;322371;110;2732996;-72
2020/12/25 01:31:54;;;;;;;4.56;1.70;;;;;;;5.03;79.03;98057.58;340694;110;1961930;-73
2020/12/25 01:33:01;;;;;;;3.13;1.51;;;;;;;5.02;78.91;98062.09;366154;109;1961994;-73
2020/12/25 01:34:07;;;;;;;3.37;1.35;;;;;;;5.05;78.84;98064.37;364527;110;1962799;-74
2020/12/25 01:35:14;;;;;;;4.37;1.53;;;;;;;5.09;78.37;98074.65;308127;114;2779005;-74
2020/12/25 01:36:20;;;;;;;4.07;1.63;;;;;;;5.11;78.08;98068.05;364201;109;1962008;-74
2020/12/25 01:37:26;;;;;;;4.07;1.57;;;;;;;5.10;78.19;98076.28;362924;111;1962085;-74
2020/12/25 01:38:32;;;;;;;5.52;2.04;;;;;;;5.09;78.33;98064.76;362342;111;1962974;-74
2020/12/25 01:39:38;;;;;;;5.31;2.02;;;;;;;5.03;78.71;98063.75;316563;111;2828028;-74
2020/12/25 01:40:44;;;;;;;4.46;1.86;;;;;;;5.05;78.60;98068.88;361262;111;1962019;-74
2020/12/25 01:41:49;;;;;;;4.17;1.86;;;;;;;5.07;78.64;98070.31;363180;111;1962973;-73
2020/12/25 01:42:55;;;;;;;5.41;1.87;;;;;;;5.09;78.59;98078.14;363496;109;1961917;-74
2020/12/25 01:44:00;;;;;;;4.84;1.89;;;;;;;5.09;78.47;98090.70;360460;111;1963186;-73
2020/12/25 01:45:13;;;;;;;4.63;2.36;;;;;;;5.11;78.67;98068.05;359767;110;1961958;-74
2020/12/25 01:46:22;;;;;;;5.29;2.26;;;;;;;5.11;78.78;98065.37;360804;111;1962018;-74
2020/12/25 01:47:28;;;;;;;6.43;2.36;;;;;;;5.09;79.34;98054.05;320317;111;2697012;-74
2020/12/25 01:48:33;;;;;;;4.43;2.22;;;;;;;5.12;79.17;98071.55;341978;109;1963986;-73
2020/12/25 01:49:39;;;;;;;3.98;1.93;;;;;;;5.10;79.14;98069.06;361354;111;1961991;-74
2020/12/25 01:50:45;;;;;;;5.36;2.55;;;;;;;5.18;78.66;98058.13;360424;111;1961847;-74
2020/12/25 01:51:51;;;;;;;6.20;2.92;;;;;;;5.19;78.53;98067.01;363359;109;1961956;-74
2020/12/25 01:52:58;;;;;;;7.19;2.86;;;;;;;5.18;78.67;98055.45;333603;111;2484994;-73
2020/12/25 01:54:03;;;;;;;6.98;2.90;;;;;;;5.21;78.58;98057.73;361692;111;1963983;-72
2020/12/25 01:56:24;;;;;;;6.84;2.85;;;;;;;5.28;78.77;98063.05;393392;103;1985901;-72
2020/12/25 01:57:29;;;;;;;6.66;3.02;;;;;;;5.21;78.67;98072.95;376030;105;1962018;-71
2020/12/25 01:58:36;;;;;;;6.96;3.07;;;;;;;5.16;78.91;98064.73;373911;106;1962049;-72
2020/12/25 01:59:42;;;;;;;7.31;3.77;;;;;;;5.10;79.70;98058.36;315723;106;2169258;-71
2020/12/25 02:00:48;;;;;;;7.97;3.29;;;;;;;5.05;79.58;98069.72;374242;106;1961974;-72
2020/12/25 02:01:55;;;;;;;7.52;3.53;;;;;;;5.04;79.80;98057.35;375167;106;1961921;-71
2020/12/25 02:03:01;;;;;;;6.98;3.05;;;;;;;5.09;79.24;98074.65;350307;107;2370950;-70
2020/12/25 02:04:08;;;;;;;7.96;3.21;;;;;;;5.11;79.29;98061.86;374650;106;1961957;-71
2020/12/25 02:05:14;;;;;;;6.65;3.19;;;;;;;5.11;79.46;98072.56;374653;106;1962003;-71
2020/12/25 02:06:21;;;;;;;6.30;3.45;;;;;;;5.10;79.66;98069.06;344834;105;2456953;-71
2020/12/25 02:07:27;;;;;;;9.02;3.86;;;;;;;5.09;80.17;98059.41;341288;105;1961972;-70
2020/12/25 02:08:32;;;;;;;7.36;3.39;;;;;;;5.12;79.90;98072.36;373920;105;1961944;-71
2020/12/25 02:09:37;;;;;;;8.35;3.52;;;;;;;5.14;79.80;98061.46;374147;105;1962888;-72
2020/12/25 02:10:43;;;;;;;8.02;3.68;;;;;;;5.17;79.81;98067.20;374612;105;1962035;-71
2020/12/25 02:11:49;;;;;;;7.39;3.67;;;;;;;5.21;79.74;98064.92;373788;105;1962972;-71
2020/12/25 02:12:55;;;;;;;10.07;4.05;;;;;;;5.21;79.85;98063.09;339645;107;2544004;-74
2020/12/25 02:14:01;;;;;;;8.48;3.76;;;;;;;5.24;79.82;98057.31;370113;105;1962007;-71
2020/12/25 02:15:08;;;;;;;8.51;3.63;;;;;;;5.26;79.77;98065.92;376127;105;1961884;-71
2020/12/25 02:16:15;;;;;;;9.61;3.83;;;;;;;5.27;80.01;98066.77;375594;105;1961997;-71
2020/12/25 02:17:20;;;;;;;9.09;4.03;;;;;;;5.29;79.74;98053.97;360499;105;1961880;-72
2020/12/25 02:18:37;;;;;;;8.69;4.71;;;;;;;5.33;79.56;98063.23;374278;107;1962008;-72
2020/12/25 02:19:42;;;;;;;7.22;3.70;;;;;;;5.34;79.54;98059.52;374105;105;1963932;-71
2020/12/25 02:20:49;;;;;;;8.88;3.92;;;;;;;5.30;79.92;98058.31;375486;106;1961961;-72
2020/12/25 02:21:54;;;;;;;9.33;4.28;;;;;;;5.32;80.04;98068.80;327733;107;2640982;-70
2020/12/25 02:23:00;;;;;;;9.37;4.82;;;;;;;5.36;79.90;98059.32;337725;107;1962903;-71
2020/12/25 02:24:05;;;;;;;9.51;4.85;;;;;;;5.35;80.11;98065.72;366479;105;1962007;-71
2020/12/25 02:25:11;;;;;;;9.23;4.35;;;;;;;5.34;80.36;98059.52;375338;105;1961990;-71
2020/12/25 02:26:16;;;;;;;9.79;4.39;;;;;;;5.39;79.84;98053.53;374384;105;1961929;-71
2020/12/25 02:27:22;;;;;;;8.87;3.97;;;;;;;5.42;80.05;98045.89;375970;105;1962031;-72
2020/12/25 02:28:28;;;;;;;10.33;4.61;;;;;;;5.44;80.02;98059.08;375555;105;1962947;-70
2020/12/25 02:29:34;;;;;;;11.63;5.35;;;;;;;5.46;79.83;98051.66;329600;106;2753011;-71
2020/12/25 02:30:41;;;;;;;11.13;5.48;;;;;;;5.49;80.06;98049.37;375218;105;1961987;-71
2020/12/25 02:31:47;;;;;;;10.68;5.77;;;;;;;5.51;80.02;98044.63;373088;106;1962004;-70
2020/12/25 02:32:53;;;;;;;10.59;5.35;;;;;;;5.54;79.84;98050.59;367809;108;1961934;-71
2020/12/25 02:34:03;;;;;;;13.54;4.98;;;;;;;5.53;79.73;98046.26;332584;105;2880974;-71
2020/12/25 02:35:09;;;;;;;13.03;5.28;;;;;;;5.51;80.13;98049.98;354125;107;2273048;-72
2020/12/25 02:36:16;;;;;;;9.70;4.97;;;;;;;5.53;80.11;98055.14;382261;105;1961911;-72
2020/12/25 02:37:21;;;;;;;15.59;7.42;;;;;;;5.56;79.79;98056.55;375674;106;1962010;-71
2020/12/25 02:38:27;;;;;;;14.48;6.38;;;;;;;5.57;80.20;98058.20;375425;106;1961980;-70
2020/12/25 02:39:32;;;;;;;13.74;6.26;;;;;;;5.56;80.29;98053.86;374822;105;1962966;-73
2020/12/25 02:40:39;;;;;;;12.67;6.07;;;;;;;5.61;80.07;98054.05;374665;105;1961988;-70
2020/12/25 02:41:44;;;;;;;13.38;6.62;;;;;;;5.59;80.00;98048.11;374015;105;1961880;-72
2020/12/25 02:42:50;;;;;;;11.54;5.80;;;;;;;5.63;79.77;98058.16;374358;106;1962049;-71
2020/12/25 02:43:55;;;;;;;12.96;6.09;;;;;;;5.65;79.89;98053.41;373307;106;1962005;-70
2020/12/25 02:45:03;;;;;;;9.96;4.89;;;;;;;5.64;79.85;98056.33;375457;106;1961994;-71
2020/12/25 02:46:08;;;;;;;11.72;6.81;;;;;;;5.65;79.94;98058.77;336947;105;1965222;-71
2020/12/25 02:47:14;;;;;;;10.64;5.24;;;;;;;5.63;80.42;98051.98;357659;105;1962045;-71
2020/12/25 02:48:21;;;;;;;13.58;5.74;;;;;;;5.65;79.94;98050.73;373135;105;1961989;-71
2020/12/25 02:49:27;;;;;;;12.43;6.06;;;;;;;5.63;80.20;98060.02;375148;105;1961930;-70
2020/12/25 02:50:35;;;;;;;12.20;5.96;;;;;;;5.67;79.96;98058.57;376203;106;1960961;-71
2020/12/25 02:51:40;;;;;;;14.66;6.26;;;;;;;5.69;80.19;98061.86;374413;105;1964017;-70
2020/12/25 02:52:45;;;;;;;13.71;6.33;;;;;;;5.66;80.27;98055.08;374897;105;1963016;-71
2020/12/25 02:53:51;;;;;;;12.66;6.25;;;;;;;5.66;80.52;98054.23;374670;105;1963988;-72
2020/12/25 02:54:58;;;;;;;12.77;5.62;;;;;;;5.71;80.22;98051.73;356643;105;2904003;-72
2020/12/25 02:56:03;;;;;;;10.64;5.49;;;;;;;5.70;80.11;98056.28;362003;105;1962005;-70
2020/12/25 02:57:08;;;;;;;13.32;6.36;;;;;;;5.73;79.97;98061.20;375590;105;1962032;-71
2020/12/25 02:58:14;;;;;;;11.69;5.61;;;;;;;5.72;80.31;98058.75;373898;105;1960964;-72
2020/12/25 02:59:19;;;;;;;12.56;6.24;;;;;;;5.72;80.56;98054.21;373448;105;1962037;-71
2020/12/25 03:00:27;;;;;;;12.41;6.54;;;;;;;5.71;80.74;98043.70;366950;107;1961980;-71
2020/12/25 03:01:32;;;;;;;14.41;7.02;;;;;;;5.73;80.64;98047.80;348314;107;2281007;-71
2020/12/25 03:02:37;;;;;;;10.81;5.51;;;;;;;5.80;80.32;98042.42;344310;105;1961936;-70
2020/12/25 03:03:43;;;;;;;13.51;6.28;;;;;;;5.83;80.25;98055.38;361004;105;1961900;-71
2020/12/25 03:04:48;;;;;;;13.62;6.66;;;;;;;5.83;80.53;98054.57;374017;105;1961971;-72
2020/12/25 03:05:54;;;;;;;14.22;6.73;;;;;;;5.85;80.30;98063.22;375449;105;1962059;-71
2020/12/25 03:07:13;;;;;;;12.87;7.12;;;;;;;5.87;79.84;98061.94;373493;105;1961928;-71
2020/12/25 03:08:18;;;;;;;11.92;5.85;;;;;;;5.85;79.75;98061.36;370413;107;1962001;-70
2020/12/25 03:09:23;;;;;;;13.59;6.54;;;;;;;5.86;79.87;98062.17;368957;107;1961916;-71
2020/12/25 03:10:29;;;;;;;13.77;6.92;;;;;;;5.84;80.07;98058.88;362455;109;1962008;-70
2020/12/25 03:11:34;;;;;;;13.07;6.85;;;;;;;5.73;80.68;98061.20;362849;109;1961931;-70
2020/12/25 03:12:41;;;;;;;13.68;6.16;;;;;;;5.72;80.76;98061.44;364171;109;1964939;-70
2020/12/25 03:13:47;;;;;;;14.41;6.68;;;;;;;5.76;80.56;98062.63;334635;109;2496939;-70
2020/12/25 03:14:52;;;;;;;12.99;6.68;;;;;;;5.75;80.89;98065.54;331526;109;1963018;-71
2020/12/25 03:15:57;;;;;;;13.59;7.22;;;;;;;5.73;80.47;98068.42;348638;109;1962000;-69
2020/12/25 03:17:03;;;;;;;13.18;6.47;;;;;;;5.80;80.29;98077.26;364768;109;1961842;-70
2020/12/25 03:18:08;;;;;;;13.72;6.82;;;;;;;5.79;80.31;98070.23;365247;109;1961940;-67
2020/12/25 03:19:14;;;;;;;13.37;6.22;;;;;;;5.80;80.19;98069.22;362558;109;1962044;-70
2020/12/25 03:20:20;;;;;;;13.74;7.46;;;;;;;5.81;80.33;98070.85;363954;109;1961918;-69
2020/12/25 03:21:26;;;;;;;19.07;7.80;;;;;;;5.77;80.45;98075.02;330955;109;2894024;-71
2020/12/25 03:22:31;;;;;;;14.50;7.44;;;;;;;5.78;80.80;98079.32;334553;109;1961921;-71
2020/12/25 03:23:37;;;;;;;13.51;7.19;;;;;;;5.73;80.87;98071.91;354551;109;1962016;-70
2020/12/25 03:24:42;;;;;;;17.73;9.32;;;;;;;5.77;80.88;98080.37;364846;109;1962023;-69
2020/12/25 03:25:47;;;;;;;14.51;7.46;;;;;;;5.78;81.02;98082.00;362574;109;1963911;-71
2020/12/25 03:26:53;;;;;;;14.72;6.99;;;;;;;5.78;80.76;98079.32;364137;109;1961839;-70
2020/12/25 03:27:58;;;;;;;13.88;7.35;;;;;;;5.81;80.98;98078.89;365263;109;1961844;-70
2020/12/25 03:29:04;;;;;;;16.71;7.84;;;;;;;5.81;81.08;98083.43;365010;108;1960835;-71
2020/12/25 03:30:10;;;;;;;14.31;7.56;;;;;;;5.87;80.56;98077.20;367422;108;1960989;-71
2020/12/25 03:31:16;;;;;;;18.09;8.21;;;;;;;5.84;80.52;98074.95;329513;108;2636997;-71
2020/12/25 03:32:22;;;;;;;15.71;7.63;;;;;;;5.82;80.86;98075.19;366463;108;1962011;-70
2020/12/25 03:33:27;;;;;;;15.72;7.37;;;;;;;5.85;80.66;98085.48;367446;108;1963021;-70
2020/12/25 03:34:32;;;;;;;16.36;7.53;;;;;;;5.86;80.61;98091.65;367593;108;1963997;-69
2020/12/25 03:35:38;;;;;;;15.58;7.56;;;;;;;5.82;80.86;98088.59;365376;108;1961962;-70
2020/12/25 03:36:45;;;;;;;15.66;7.99;;;;;;;5.83;80.68;98098.26;342036;108;2395981;-70
2020/12/25 03:37:51;;;;;;;17.11;8.23;;;;;;;5.85;80.48;98098.88;338643;110;1961980;-70
2020/12/25 03:38:57;;;;;;;16.59;8.27;;;;;;;5.86;80.36;98103.19;367285;108;1961961;-69
2020/12/25 03:40:04;;;;;;;17.58;8.12;;;;;;;5.89;80.51;98099.26;367257;108;1963997;-70
2020/12/25 03:41:10;;;;;;;15.54;7.64;;;;;;;5.88;80.39;98095.77;316532;108;2866994;-71
2020/12/25 03:42:16;;;;;;;15.75;8.82;;;;;;;5.87;80.85;98094.09;341583;109;1961995;-70
2020/12/25 03:43:25;;;;;;;16.14;8.76;;;;;;;5.84;80.86;98093.72;367331;108;1962982;-70
2020/12/25 03:44:31;;;;;;;17.89;9.36;;;;;;;5.86;80.86;98089.78;317579;108;2061869;-69
2020/12/25 03:45:36;;;;;;;16.93;8.68;;;;;;;5.87;80.93;98091.42;367593;108;1961903;-70
2020/12/25 03:46:42;;;;;;;15.28;8.29;;;;;;;5.89;80.79;98089.36;367225;108;1961953;-70
2020/12/25 03:47:50;;;;;;;15.83;8.37;;;;;;;5.91;80.76;98081.11;336395;108;2478989;-70
2020/12/25 03:48:56;;;;;;;15.92;8.74;;;;;;;5.93;80.62;98082.58;337542;108;1962916;-70
2020/12/25 03:50:01;;;;;;;16.68;8.39;;;;;;;5.97;80.26;98080.27;365050;108;1964006;-71
2020/12/25 03:51:06;;;;;;;16.67;9.09;;;;;;;5.99;80.17;98082.75;356131;113;1963882;-71
2020/12/25 03:52:11;;;;;;;18.21;9.57;;;;;;;5.96;80.51;98081.33;368100;108;1961943;-71
2020/12/25 03:53:16;;;;;;;17.13;8.78;;;;;;;5.95;80.41;98082.34;367080;108;1961930;-70
2020/12/25 03:54:23;;;;;;;17.84;10.07;;;;;;;5.97;80.47;98085.63;367850;108;1961934;-71
2020/12/25 03:55:29;;;;;;;17.12;9.26;;;;;;;5.94;80.72;98084.20;366549;108;1961952;-71
2020/12/25 03:56:35;;;;;;;15.92;9.74;;;;;;;5.92;80.78;98085.42;368851;108;1961941;-70
2020/12/25 03:57:41;;;;;;;19.97;9.50;;;;;;;5.93;80.92;98082.58;367028;110;1961920;-69
2020/12/25 03:58:47;;;;;;;17.77;9.24;;;;;;;5.91;81.24;98076.56;367130;108;1962904;-73
2020/12/25 03:59:53;;;;;;;16.24;8.86;;;;;;;5.93;81.41;98071.86;367165;108;1960724;-70
2020/12/25 04:00:59;;;;;;;18.35;9.18;;;;;;;6.01;80.60;98084.19;349304;108;2260986;-70
2020/12/25 04:02:05;;;;;;;15.55;8.41;;;;;;;6.02;80.75;98082.31;344421;108;1961940;-71
2020/12/25 04:03:12;;;;;;;16.41;9.23;;;;;;;6.05;80.64;98077.34;365936;110;1963960;-70
2020/12/25 04:04:18;;;;;;;17.77;9.74;;;;;;;6.04;80.85;98074.89;367169;108;1962009;-70
2020/12/25 04:05:37;;;;;;;19.30;10.51;;;;;;;6.04;80.73;98073.02;365270;108;1962069;-70
2020/12/25 04:06:43;;;;;;;17.11;9.03;;;;;;;6.03;80.81;98075.91;361824;108;1962932;-70
2020/12/25 04:07:49;;;;;;;19.49;9.62;;;;;;;6.06;80.85;98081.68;320153;108;2713918;-70
2020/12/25 04:08:54;;;;;;;20.08;10.33;;;;;;;6.08;80.71;98086.81;342098;108;1961978;-71
2020/12/25 04:10:00;;;;;;;17.33;9.11;;;;;;;6.08;80.84;98078.77;349825;110;1961907;-70
2020/12/25 04:11:07;;;;;;;15.65;9.30;;;;;;;6.09;81.11;98077.74;360974;111;1961978;-71
2020/12/25 04:12:13;;;;;;;17.81;10.39;;;;;;;6.09;80.96;98081.24;361051;111;1961978;-70
2020/12/25 04:13:19;;;;;;;17.89;9.92;;;;;;;6.13;80.71;98077.08;318838;111;2713963;-71
2020/12/25 04:14:25;;;;;;;17.52;9.41;;;;;;;6.12;81.14;98070.08;344423;111;1961890;-69
2020/12/25 04:15:31;;;;;;;18.30;10.66;;;;;;;6.14;81.06;98076.05;360731;111;1962944;-71
2020/12/25 04:16:37;;;;;;;17.53;9.92;;;;;;;6.14;81.19;98075.24;360835;111;1962020;-72
2020/12/25 04:17:46;;;;;;;17.97;10.51;;;;;;;6.15;81.28;98075.01;359949;109;1962016;-70
2020/12/25 04:18:52;;;;;;;18.31;10.24;;;;;;;6.15;81.24;98082.23;360445;111;1962975;-71
2020/12/25 04:19:59;;;;;;;19.84;10.76;;;;;;;6.18;80.98;98081.80;314419;109;2780967;-72
2020/12/25 04:21:04;;;;;;;17.90;10.38;;;;;;;6.24;80.47;98088.14;331695;111;1961983;-70
2020/12/25 04:22:09;;;;;;;19.99;10.13;;;;;;;6.26;80.45;98092.26;348001;111;1961962;-71
2020/12/25 04:23:15;;;;;;;18.66;9.77;;;;;;;6.27;80.54;98088.56;362396;111;1961972;-72
2020/12/25 04:24:20;;;;;;;17.59;10.82;;;;;;;6.24;80.44;98093.52;361202;111;1961951;-71
2020/12/25 04:25:26;;;;;;;17.92;10.64;;;;;;;6.20;80.78;98086.95;361146;111;1962999;-70
2020/12/25 04:26:34;;;;;;;18.90;9.84;;;;;;;6.25;80.46;98095.17;296362;111;2206458;-71
2020/12/25 04:27:39;;;;;;;19.06;10.32;;;;;;;6.26;80.50;98100.30;362160;110;1961927;-73
2020/12/25 04:28:46;;;;;;;16.76;9.58;;;;;;;6.25;80.69;98095.17;361684;111;1961847;-71
2020/12/25 04:29:51;;;;;;;20.33;11.16;;;;;;;6.23;80.74;98092.69;361718;109;1960858;-71
2020/12/25 04:30:57;;;;;;;18.33;9.89;;;;;;;6.28;80.51;98095.55;362111;111;1961868;-70
2020/12/25 04:32:03;;;;;;;19.66;11.00;;;;;;;6.27;80.50;98091.23;324631;111;2606953;-71
2020/12/25 04:33:09;;;;;;;18.70;9.96;;;;;;;6.28;80.52;98081.33;353419;111;1961025;-71
2020/12/25 04:34:14;;;;;;;20.26;10.41;;;;;;;6.29;80.65;98086.45;362154;111;1961105;-71
2020/12/25 04:35:20;;;;;;;16.25;10.16;;;;;;;6.31;80.72;98081.70;361529;111;1962991;-71
2020/12/25 04:36:27;;;;;;;17.59;10.10;;;;;;;6.35;80.55;98079.40;360565;111;1962954;-71
2020/12/25 04:37:33;;;;;;;19.28;11.50;;;;;;;6.34;80.69;98083.13;315097;111;2773911;-71
2020/12/25 04:38:38;;;;;;;17.23;10.34;;;;;;;6.35;80.64;98087.44;341896;111;1962943;-71
2020/12/25 04:39:45;;;;;;;18.41;10.71;;;;;;;6.37;80.48;98085.38;361248;111;1960662;-71
2020/12/25 04:40:50;;;;;;;19.52;11.41;;;;;;;6.39;80.57;98088.66;348407;113;1964979;-72
2020/12/25 04:41:56;;;;;;;18.10;10.04;;;;;;;6.42;80.36;98080.18;361050;111;1962042;-73
2020/12/25 04:43:03;;;;;;;20.37;10.21;;;;;;;6.41;80.08;98083.91;359521;111;1962977;-71
2020/12/25 04:44:08;;;;;;;19.67;10.68;;;;;;;6.11;80.23;98044.32;314220;111;2036849;-70
2020/12/25 04:45:13;;;;;;;18.86;10.22;;;;;;;6.46;80.15;98094.00;337909;111;1961946;-71
2020/12/25 04:46:21;;;;;;;20.53;11.17;;;;;;;6.44;80.15;98096.06;361998;111;1961960;-70
2020/12/25 04:47:27;;;;;;;20.44;10.87;;;;;;;6.34;80.53;98083.95;359638;111;1962017;-71
2020/12/25 04:48:35;;;;;;;19.62;10.71;;;;;;;6.35;81.01;98084.76;313262;111;2797976;-71
2020/12/25 04:49:41;;;;;;;16.17;9.68;;;;;;;6.41;80.28;98100.00;360869;111;1965966;-70
2020/12/25 04:50:48;;;;;;;17.41;9.49;;;;;;;6.43;80.27;98097.93;339531;111;1960842;-70
2020/12/25 04:51:53;;;;;;;18.76;10.68;;;;;;;6.42;80.32;98104.31;358872;111;1960895;-71
2020/12/25 04:52:59;;;;;;;17.48;10.73;;;;;;;6.41;80.21;98099.19;363736;109;1960716;-70
2020/12/25 04:54:04;;;;;;;18.42;10.73;;;;;;;6.41;80.34;98100.00;360666;107;1960843;-71
2020/12/25 04:55:10;;;;;;;18.12;10.64;;;;;;;6.41;80.59;98101.88;363143;107;1960829;-69
2020/12/25 04:56:19;;;;;;;21.76;11.29;;;;;;;6.37;80.60;98113.00;361564;111;1960950;-70
2020/12/25 04:57:24;;;;;;;20.22;11.24;;;;;;;6.36;80.32;98111.37;362628;111;1964013;-70
2020/12/25 04:58:29;;;;;;;19.38;10.54;;;;;;;6.42;80.24;98116.91;362840;111;1961012;-72
2020/12/25 04:59:35;;;;;;;19.09;10.94;;;;;;;6.44;80.26;98117.52;361807;111;1962000;-71
2020/12/25 05:00:43;;;;;;;16.47;10.49;;;;;;;6.44;80.10;98104.93;297225;111;2202315;-71
2020/12/25 05:01:52;;;;;;;21.73;11.51;;;;;;;6.41;80.64;98110.73;361632;111;1960970;-71
2020/12/25 05:02:58;;;;;;;19.46;11.44;;;;;;;6.40;80.48;98106.39;323008;109;1960912;-71
2020/12/25 05:04:03;;;;;;;18.82;10.40;;;;;;;6.44;80.16;98112.16;347004;111;1960847;-71
2020/12/25 05:05:10;;;;;;;19.15;11.48;;;;;;;6.42;80.47;98106.19;358792;111;1960987;-70
2020/12/25 05:06:19;;;;;;;17.33;10.71;;;;;;;6.42;80.26;98103.50;303181;111;2165207;-70
2020/12/25 05:07:25;;;;;;;18.37;10.13;;;;;;;6.43;80.31;98097.09;361360;111;1960899;-70